Terminal Aerodrome Forecast
Issued by NWS

Home | Current Version | Previous Version | Text Only | Print | Product List | Glossary On
Versions: 1 2 3 4 5 6 7 8 9 10 11 12 13 14 15
000
FTUS43 KLSX 012346
TAFUIN
TAF
KUIN 012346Z 0200/0224 04009KT P6SM VCTS BKN050CB
     FM020300 09006KT 5SM -SHRA BKN040
     FM020700 06008KT 6SM BR OVC020=

USA.gov is the U.S. government's official web portal to all federal, state and local government web resources and services.